sensor_id;sensor_type;location;lat;lon;timestamp;P1;durP1;ratioP1;P2;durP2;ratioP2
35496;SDS011;21609;49.298;6.844;2023-11-21T00:02:02;0.30;;;0.30;;
35496;SDS011;21609;49.298;6.844;2023-11-21T00:04:29;0.30;;;0.30;;
35496;SDS011;21609;49.298;6.844;2023-11-21T00:06:55;0.57;;;0.30;;
35496;SDS011;21609;49.298;6.844;2023-11-21T00:09:20;0.35;;;0.28;;
35496;SDS011;21609;49.298;6.844;2023-11-21T00:11:46;0.28;;;0.28;;
35496;SDS011;21609;49.298;6.844;2023-11-21T00:14:12;0.88;;;0.50;;
35496;SDS011;21609;49.298;6.844;2023-11-21T00:16:40;1.15;;;0.50;;
35496;SDS011;21609;49.298;6.844;2023-11-21T00:19:06;0.35;;;0.30;;
35496;SDS011;21609;49.298;6.844;2023-11-21T00:21:32;1.17;;;0.30;;
35496;SDS011;21609;49.298;6.844;2023-11-21T00:23:57;0.40;;;0.40;;
35496;SDS011;21609;49.298;6.844;2023-11-21T00:26:23;0.13;;;0.13;;
35496;SDS011;21609;49.298;6.844;2023-11-21T00:28:49;0.95;;;0.45;;
35496;SDS011;21609;49.298;6.844;2023-11-21T00:31:15;0.30;;;0.25;;
35496;SDS011;21609;49.298;6.844;2023-11-21T00:33:41;0.50;;;0.30;;
35496;SDS011;21609;49.298;6.844;2023-11-21T00:36:06;0.20;;;0.20;;
35496;SDS011;21609;49.298;6.844;2023-11-21T00:38:34;0.30;;;0.30;;
35496;SDS011;21609;49.298;6.844;2023-11-21T00:41:00;0.20;;;0.20;;
35496;SDS011;21609;49.298;6.844;2023-11-21T00:43:26;0.40;;;0.40;;
35496;SDS011;21609;49.298;6.844;2023-11-21T00:45:52;0.30;;;0.30;;
35496;SDS011;21609;49.298;6.844;2023-11-21T00:48:17;0.30;;;0.30;;
35496;SDS011;21609;49.298;6.844;2023-11-21T00:50:43;0.40;;;0.30;;
35496;SDS011;21609;49.298;6.844;2023-11-21T00:53:09;0.63;;;0.45;;
35496;SDS011;21609;49.298;6.844;2023-11-21T00:55:35;0.75;;;0.30;;
35496;SDS011;21609;49.298;6.844;2023-11-21T00:58:01;0.82;;;0.40;;
35496;SDS011;21609;49.298;6.844;2023-11-21T01:00:29;0.20;;;0.20;;
35496;SDS011;21609;49.298;6.844;2023-11-21T01:02:54;0.32;;;0.32;;
35496;SDS011;21609;49.298;6.844;2023-11-21T01:05:20;0.43;;;0.20;;
35496;SDS011;21609;49.298;6.844;2023-11-21T01:07:45;0.10;;;0.10;;
35496;SDS011;21609;49.298;6.844;2023-11-21T01:10:11;0.75;;;0.50;;
35496;SDS011;21609;49.298;6.844;2023-11-21T01:12:37;0.30;;;0.30;;
35496;SDS011;21609;49.298;6.844;2023-11-21T01:15:04;0.63;;;0.40;;
35496;SDS011;21609;49.298;6.844;2023-11-21T01:17:33;0.63;;;0.30;;
35496;SDS011;21609;49.298;6.844;2023-11-21T01:19:59;0.50;;;0.35;;
35496;SDS011;21609;49.298;6.844;2023-11-21T01:22:26;1.38;;;0.70;;
35496;SDS011;21609;49.298;6.844;2023-11-21T01:24:52;0.30;;;0.30;;
35496;SDS011;21609;49.298;6.844;2023-11-21T01:27:18;1.20;;;0.40;;
35496;SDS011;21609;49.298;6.844;2023-11-21T01:29:44;0.40;;;0.30;;
35496;SDS011;21609;49.298;6.844;2023-11-21T01:32:09;4.15;;;0.30;;
35496;SDS011;21609;49.298;6.844;2023-11-21T01:34:35;2.88;;;0.57;;
35496;SDS011;21609;49.298;6.844;2023-11-21T01:37:01;3.78;;;0.60;;
35496;SDS011;21609;49.298;6.844;2023-11-21T01:39:29;3.15;;;0.90;;
35496;SDS011;21609;49.298;6.844;2023-11-21T01:41:55;7.97;;;1.15;;
35496;SDS011;21609;49.298;6.844;2023-11-21T01:44:22;4.10;;;1.75;;
35496;SDS011;21609;49.298;6.844;2023-11-21T01:46:49;4.57;;;0.63;;
35496;SDS011;21609;49.298;6.844;2023-11-21T01:49:15;1.65;;;0.60;;
35496;SDS011;21609;49.298;6.844;2023-11-21T01:51:42;4.85;;;0.80;;
35496;SDS011;21609;49.298;6.844;2023-11-21T01:54:13;0.90;;;0.60;;
35496;SDS011;21609;49.298;6.844;2023-11-21T01:56:40;4.55;;;0.63;;
35496;SDS011;21609;49.298;6.844;2023-11-21T01:59:05;1.58;;;0.55;;
35496;SDS011;21609;49.298;6.844;2023-11-21T02:01:32;1.23;;;0.60;;
35496;SDS011;21609;49.298;6.844;2023-11-21T02:03:58;5.13;;;1.13;;
35496;SDS011;21609;49.298;6.844;2023-11-21T02:06:24;3.35;;;0.90;;
35496;SDS011;21609;49.298;6.844;2023-11-21T02:08:50;2.83;;;1.00;;
35496;SDS011;21609;49.298;6.844;2023-11-21T02:11:16;3.70;;;0.52;;
35496;SDS011;21609;49.298;6.844;2023-11-21T02:13:44;1.42;;;0.50;;
35496;SDS011;21609;49.298;6.844;2023-11-21T02:16:10;4.22;;;0.77;;
35496;SDS011;21609;49.298;6.844;2023-11-21T02:18:37;0.95;;;0.57;;
35496;SDS011;21609;49.298;6.844;2023-11-21T02:21:04;0.77;;;0.32;;
35496;SDS011;21609;49.298;6.844;2023-11-21T02:23:30;3.72;;;0.60;;
35496;SDS011;21609;49.298;6.844;2023-11-21T02:25:55;0.60;;;0.30;;
35496;SDS011;21609;49.298;6.844;2023-11-21T02:28:21;5.75;;;0.65;;
35496;SDS011;21609;49.298;6.844;2023-11-21T02:30:51;1.30;;;0.50;;
35496;SDS011;21609;49.298;6.844;2023-11-21T02:33:20;0.88;;;0.60;;
35496;SDS011;21609;49.298;6.844;2023-11-21T02:35:46;1.70;;;0.70;;
35496;SDS011;21609;49.298;6.844;2023-11-21T02:38:12;1.55;;;0.35;;
35496;SDS011;21609;49.298;6.844;2023-11-21T02:40:37;0.80;;;0.45;;
35496;SDS011;21609;49.298;6.844;2023-11-21T02:43:03;0.52;;;0.30;;
35496;SDS011;21609;49.298;6.844;2023-11-21T02:45:30;0.77;;;0.60;;
35496;SDS011;21609;49.298;6.844;2023-11-21T02:47:57;0.50;;;0.30;;
35496;SDS011;21609;49.298;6.844;2023-11-21T02:50:23;0.60;;;0.40;;
35496;SDS011;21609;49.298;6.844;2023-11-21T02:55:24;1.48;;;0.63;;
35496;SDS011;21609;49.298;6.844;2023-11-21T02:57:50;1.08;;;0.60;;
35496;SDS011;21609;49.298;6.844;2023-11-21T03:00:15;0.70;;;0.43;;
35496;SDS011;21609;49.298;6.844;2023-11-21T03:02:41;1.05;;;0.50;;
35496;SDS011;21609;49.298;6.844;2023-11-21T03:05:08;2.45;;;0.50;;
35496;SDS011;21609;49.298;6.844;2023-11-21T03:07:35;2.42;;;0.30;;
35496;SDS011;21609;49.298;6.844;2023-11-21T03:10:02;0.70;;;0.40;;
35496;SDS011;21609;49.298;6.844;2023-11-21T03:12:29;0.75;;;0.38;;
35496;SDS011;21609;49.298;6.844;2023-11-21T03:14:55;1.20;;;0.40;;
35496;SDS011;21609;49.298;6.844;2023-11-21T03:17:20;1.00;;;0.63;;
35496;SDS011;21609;49.298;6.844;2023-11-21T03:19:46;0.65;;;0.55;;
35496;SDS011;21609;49.298;6.844;2023-11-21T03:22:11;0.28;;;0.20;;
35496;SDS011;21609;49.298;6.844;2023-11-21T03:24:38;2.22;;;0.30;;
35496;SDS011;21609;49.298;6.844;2023-11-21T03:27:04;1.50;;;0.50;;
35496;SDS011;21609;49.298;6.844;2023-11-21T03:29:29;1.00;;;0.30;;
35496;SDS011;21609;49.298;6.844;2023-11-21T03:31:55;1.05;;;0.35;;
35496;SDS011;21609;49.298;6.844;2023-11-21T03:34:24;0.30;;;0.30;;
35496;SDS011;21609;49.298;6.844;2023-11-21T03:36:51;1.13;;;0.40;;
35496;SDS011;21609;49.298;6.844;2023-11-21T03:39:17;2.85;;;0.75;;
35496;SDS011;21609;49.298;6.844;2023-11-21T03:41:44;0.57;;;0.20;;
35496;SDS011;21609;49.298;6.844;2023-11-21T03:44:10;2.05;;;0.47;;
35496;SDS011;21609;49.298;6.844;2023-11-21T03:46:35;0.30;;;0.30;;
35496;SDS011;21609;49.298;6.844;2023-11-21T03:49:01;0.57;;;0.40;;
35496;SDS011;21609;49.298;6.844;2023-11-21T03:51:27;0.40;;;0.30;;
35496;SDS011;21609;49.298;6.844;2023-11-21T03:53:52;0.40;;;0.40;;
35496;SDS011;21609;49.298;6.844;2023-11-21T03:56:18;0.75;;;0.40;;
35496;SDS011;21609;49.298;6.844;2023-11-21T03:58:46;0.30;;;0.20;;
35496;SDS011;21609;49.298;6.844;2023-11-21T04:01:18;3.20;;;0.57;;
35496;SDS011;21609;49.298;6.844;2023-11-21T04:03:47;0.95;;;0.40;;
35496;SDS011;21609;49.298;6.844;2023-11-21T04:06:13;0.63;;;0.25;;
35496;SDS011;21609;49.298;6.844;2023-11-21T04:08:38;1.80;;;0.30;;
35496;SDS011;21609;49.298;6.844;2023-11-21T04:11:04;1.52;;;0.35;;
35496;SDS011;21609;49.298;6.844;2023-11-21T04:13:29;0.50;;;0.40;;
35496;SDS011;21609;49.298;6.844;2023-11-21T04:15:55;0.80;;;0.28;;
35496;SDS011;21609;49.298;6.844;2023-11-21T04:18:21;0.73;;;0.20;;
35496;SDS011;21609;49.298;6.844;2023-11-21T04:20:48;0.82;;;0.30;;
35496;SDS011;21609;49.298;6.844;2023-11-21T04:23:13;2.13;;;0.40;;
35496;SDS011;21609;49.298;6.844;2023-11-21T04:25:40;0.30;;;0.30;;
35496;SDS011;21609;49.298;6.844;2023-11-21T04:28:05;1.52;;;0.73;;
35496;SDS011;21609;49.298;6.844;2023-11-21T04:30:31;1.10;;;0.30;;
35496;SDS011;21609;49.298;6.844;2023-11-21T04:32:57;0.50;;;0.30;;
35496;SDS011;21609;49.298;6.844;2023-11-21T04:35:23;0.50;;;0.35;;
35496;SDS011;21609;49.298;6.844;2023-11-21T04:37:49;0.90;;;0.20;;
35496;SDS011;21609;49.298;6.844;2023-11-21T04:40:16;1.40;;;0.30;;
35496;SDS011;21609;49.298;6.844;2023-11-21T04:42:41;0.20;;;0.20;;
35496;SDS011;21609;49.298;6.844;2023-11-21T04:45:07;2.00;;;0.60;;
35496;SDS011;21609;49.298;6.844;2023-11-21T04:47:34;0.30;;;0.30;;
35496;SDS011;21609;49.298;6.844;2023-11-21T04:50:00;0.52;;;0.40;;
35496;SDS011;21609;49.298;6.844;2023-11-21T04:52:26;0.40;;;0.30;;
35496;SDS011;21609;49.298;6.844;2023-11-21T04:54:52;0.60;;;0.40;;
35496;SDS011;21609;49.298;6.844;2023-11-21T04:57:19;0.47;;;0.20;;
35496;SDS011;21609;49.298;6.844;2023-11-21T04:59:45;0.45;;;0.40;;
35496;SDS011;21609;49.298;6.844;2023-11-21T05:02:11;0.70;;;0.32;;
35496;SDS011;21609;49.298;6.844;2023-11-21T05:04:37;0.82;;;0.20;;
35496;SDS011;21609;49.298;6.844;2023-11-21T05:07:03;0.20;;;0.20;;
35496;SDS011;21609;49.298;6.844;2023-11-21T05:09:28;0.38;;;0.22;;
35496;SDS011;21609;49.298;6.844;2023-11-21T05:11:57;0.30;;;0.20;;
35496;SDS011;21609;49.298;6.844;2023-11-21T05:14:22;1.65;;;0.40;;
35496;SDS011;21609;49.298;6.844;2023-11-21T05:16:48;0.77;;;0.40;;
35496;SDS011;21609;49.298;6.844;2023-11-21T05:19:15;0.20;;;0.20;;
35496;SDS011;21609;49.298;6.844;2023-11-21T05:21:41;0.20;;;0.20;;
35496;SDS011;21609;49.298;6.844;2023-11-21T05:24:07;0.40;;;0.40;;
35496;SDS011;21609;49.298;6.844;2023-11-21T05:26:32;0.25;;;0.20;;
35496;SDS011;21609;49.298;6.844;2023-11-21T05:28:58;1.27;;;0.28;;
35496;SDS011;21609;49.298;6.844;2023-11-21T05:31:23;0.45;;;0.30;;
35496;SDS011;21609;49.298;6.844;2023-11-21T05:33:49;0.20;;;0.20;;
35496;SDS011;21609;49.298;6.844;2023-11-21T05:36:14;1.35;;;0.40;;
35496;SDS011;21609;49.298;6.844;2023-11-21T05:38:40;0.73;;;0.40;;
35496;SDS011;21609;49.298;6.844;2023-11-21T05:41:06;0.20;;;0.20;;
35496;SDS011;21609;49.298;6.844;2023-11-21T05:43:33;1.10;;;0.28;;
35496;SDS011;21609;49.298;6.844;2023-11-21T05:46:00;0.30;;;0.30;;
35496;SDS011;21609;49.298;6.844;2023-11-21T05:48:26;0.20;;;0.20;;
35496;SDS011;21609;49.298;6.844;2023-11-21T05:50:51;0.52;;;0.30;;
35496;SDS011;21609;49.298;6.844;2023-11-21T05:53:17;0.65;;;0.40;;
35496;SDS011;21609;49.298;6.844;2023-11-21T05:55:43;0.40;;;0.17;;
35496;SDS011;21609;49.298;6.844;2023-11-21T05:58:08;0.40;;;0.30;;
35496;SDS011;21609;49.298;6.844;2023-11-21T06:00:34;0.40;;;0.30;;
35496;SDS011;21609;49.298;6.844;2023-11-21T06:03:00;0.63;;;0.38;;
35496;SDS011;21609;49.298;6.844;2023-11-21T06:05:26;0.30;;;0.30;;
35496;SDS011;21609;49.298;6.844;2023-11-21T06:07:55;0.75;;;0.30;;
35496;SDS011;21609;49.298;6.844;2023-11-21T06:10:23;0.90;;;0.30;;
35496;SDS011;21609;49.298;6.844;2023-11-21T06:12:50;0.50;;;0.20;;
35496;SDS011;21609;49.298;6.844;2023-11-21T06:15:15;0.35;;;0.30;;
35496;SDS011;21609;49.298;6.844;2023-11-21T06:17:44;0.30;;;0.30;;
35496;SDS011;21609;49.298;6.844;2023-11-21T06:20:14;0.30;;;0.30;;
35496;SDS011;21609;49.298;6.844;2023-11-21T06:22:43;0.50;;;0.40;;
35496;SDS011;21609;49.298;6.844;2023-11-21T06:25:11;0.63;;;0.28;;
35496;SDS011;21609;49.298;6.844;2023-11-21T06:27:39;0.50;;;0.40;;
35496;SDS011;21609;49.298;6.844;2023-11-21T06:30:05;0.63;;;0.20;;
35496;SDS011;21609;49.298;6.844;2023-11-21T06:32:33;0.82;;;0.25;;
35496;SDS011;21609;49.298;6.844;2023-11-21T06:34:59;0.52;;;0.30;;
35496;SDS011;21609;49.298;6.844;2023-11-21T06:37:26;0.63;;;0.30;;
35496;SDS011;21609;49.298;6.844;2023-11-21T06:39:52;0.30;;;0.30;;
35496;SDS011;21609;49.298;6.844;2023-11-21T06:42:18;0.63;;;0.20;;
35496;SDS011;21609;49.298;6.844;2023-11-21T06:44:44;0.25;;;0.25;;
35496;SDS011;21609;49.298;6.844;2023-11-21T06:47:10;1.90;;;0.30;;
35496;SDS011;21609;49.298;6.844;2023-11-21T06:49:36;0.30;;;0.30;;
35496;SDS011;21609;49.298;6.844;2023-11-21T06:52:03;0.85;;;0.20;;
35496;SDS011;21609;49.298;6.844;2023-11-21T06:54:30;1.40;;;0.30;;
35496;SDS011;21609;49.298;6.844;2023-11-21T06:56:56;1.23;;;0.30;;
35496;SDS011;21609;49.298;6.844;2023-11-21T06:59:21;0.65;;;0.20;;
35496;SDS011;21609;49.298;6.844;2023-11-21T07:01:47;0.30;;;0.22;;
35496;SDS011;21609;49.298;6.844;2023-11-21T07:04:12;0.63;;;0.25;;
35496;SDS011;21609;49.298;6.844;2023-11-21T07:06:38;0.30;;;0.30;;
35496;SDS011;21609;49.298;6.844;2023-11-21T07:09:04;0.32;;;0.25;;
35496;SDS011;21609;49.298;6.844;2023-11-21T07:11:29;1.05;;;0.65;;
35496;SDS011;21609;49.298;6.844;2023-11-21T07:13:55;0.43;;;0.25;;
35496;SDS011;21609;49.298;6.844;2023-11-21T07:16:21;0.30;;;0.30;;
35496;SDS011;21609;49.298;6.844;2023-11-21T07:18:47;3.03;;;0.50;;
35496;SDS011;21609;49.298;6.844;2023-11-21T07:21:14;2.70;;;0.40;;
35496;SDS011;21609;49.298;6.844;2023-11-21T07:23:41;1.65;;;0.40;;
35496;SDS011;21609;49.298;6.844;2023-11-21T07:26:06;5.18;;;0.57;;
35496;SDS011;21609;49.298;6.844;2023-11-21T07:28:35;4.65;;;0.77;;
35496;SDS011;21609;49.298;6.844;2023-11-21T07:31:01;1.95;;;0.60;;
35496;SDS011;21609;49.298;6.844;2023-11-21T07:33:28;4.10;;;0.60;;
35496;SDS011;21609;49.298;6.844;2023-11-21T07:35:53;4.57;;;0.60;;
35496;SDS011;21609;49.298;6.844;2023-11-21T07:38:19;3.08;;;0.80;;
35496;SDS011;21609;49.298;6.844;2023-11-21T07:40:44;0.80;;;0.47;;
35496;SDS011;21609;49.298;6.844;2023-11-21T07:43:10;0.82;;;0.50;;
35496;SDS011;21609;49.298;6.844;2023-11-21T07:45:36;2.97;;;0.80;;
35496;SDS011;21609;49.298;6.844;2023-11-21T07:48:02;0.47;;;0.45;;
35496;SDS011;21609;49.298;6.844;2023-11-21T07:50:29;2.08;;;0.70;;
35496;SDS011;21609;49.298;6.844;2023-11-21T07:52:55;5.40;;;0.80;;
35496;SDS011;21609;49.298;6.844;2023-11-21T07:55:22;3.10;;;0.60;;
35496;SDS011;21609;49.298;6.844;2023-11-21T07:57:49;1.63;;;0.50;;
35496;SDS011;21609;49.298;6.844;2023-11-21T08:00:15;3.13;;;0.45;;
35496;SDS011;21609;49.298;6.844;2023-11-21T08:02:41;1.08;;;0.70;;
35496;SDS011;21609;49.298;6.844;2023-11-21T08:05:11;0.50;;;0.40;;
35496;SDS011;21609;49.298;6.844;2023-11-21T08:07:37;5.00;;;0.60;;
35496;SDS011;21609;49.298;6.844;2023-11-21T08:10:03;0.93;;;0.45;;
35496;SDS011;21609;49.298;6.844;2023-11-21T08:12:32;0.52;;;0.50;;
35496;SDS011;21609;49.298;6.844;2023-11-21T08:14:57;2.75;;;0.82;;
35496;SDS011;21609;49.298;6.844;2023-11-21T08:17:23;2.05;;;0.60;;
35496;SDS011;21609;49.298;6.844;2023-11-21T08:19:48;2.42;;;0.60;;
35496;SDS011;21609;49.298;6.844;2023-11-21T08:22:16;7.68;;;1.10;;
35496;SDS011;21609;49.298;6.844;2023-11-21T08:24:43;3.88;;;1.10;;
35496;SDS011;21609;49.298;6.844;2023-11-21T08:27:09;3.28;;;1.10;;
35496;SDS011;21609;49.298;6.844;2023-11-21T08:29:35;3.97;;;1.02;;
35496;SDS011;21609;49.298;6.844;2023-11-21T08:32:01;3.92;;;1.02;;
35496;SDS011;21609;49.298;6.844;2023-11-21T08:34:28;7.65;;;1.23;;
35496;SDS011;21609;49.298;6.844;2023-11-21T08:36:54;6.47;;;1.00;;
35496;SDS011;21609;49.298;6.844;2023-11-21T08:39:20;4.55;;;1.00;;
35496;SDS011;21609;49.298;6.844;2023-11-21T08:41:49;2.17;;;1.17;;
35496;SDS011;21609;49.298;6.844;2023-11-21T08:44:15;10.07;;;1.38;;
35496;SDS011;21609;49.298;6.844;2023-11-21T08:46:43;3.67;;;1.05;;
35496;SDS011;21609;49.298;6.844;2023-11-21T08:49:10;7.50;;;1.27;;
35496;SDS011;21609;49.298;6.844;2023-11-21T08:51:36;2.38;;;1.25;;
35496;SDS011;21609;49.298;6.844;2023-11-21T08:54:02;3.38;;;1.00;;
35496;SDS011;21609;49.298;6.844;2023-11-21T08:56:32;5.75;;;1.17;;
35496;SDS011;21609;49.298;6.844;2023-11-21T08:58:57;11.27;;;1.40;;
35496;SDS011;21609;49.298;6.844;2023-11-21T09:01:23;3.20;;;1.60;;
35496;SDS011;21609;49.298;6.844;2023-11-21T09:03:49;1.02;;;0.75;;
35496;SDS011;21609;49.298;6.844;2023-11-21T09:06:15;3.63;;;1.45;;
35496;SDS011;21609;49.298;6.844;2023-11-21T09:08:40;4.10;;;1.35;;
35496;SDS011;21609;49.298;6.844;2023-11-21T09:11:07;2.08;;;1.00;;
35496;SDS011;21609;49.298;6.844;2023-11-21T09:13:33;2.20;;;1.30;;
35496;SDS011;21609;49.298;6.844;2023-11-21T09:15:59;2.13;;;1.00;;
35496;SDS011;21609;49.298;6.844;2023-11-21T09:18:25;1.95;;;1.00;;
35496;SDS011;21609;49.298;6.844;2023-11-21T09:20:50;2.28;;;1.10;;
35496;SDS011;21609;49.298;6.844;2023-11-21T09:23:16;2.47;;;1.13;;
35496;SDS011;21609;49.298;6.844;2023-11-21T09:25:41;4.22;;;1.17;;
35496;SDS011;21609;49.298;6.844;2023-11-21T09:28:11;4.57;;;1.30;;
35496;SDS011;21609;49.298;6.844;2023-11-21T09:30:37;4.05;;;1.13;;
35496;SDS011;21609;49.298;6.844;2023-11-21T09:33:03;3.95;;;1.60;;
35496;SDS011;21609;49.298;6.844;2023-11-21T09:35:33;5.65;;;1.13;;
35496;SDS011;21609;49.298;6.844;2023-11-21T09:37:59;3.45;;;1.35;;
35496;SDS011;21609;49.298;6.844;2023-11-21T09:40:26;5.38;;;1.30;;
35496;SDS011;21609;49.298;6.844;2023-11-21T09:42:54;6.32;;;1.15;;
35496;SDS011;21609;49.298;6.844;2023-11-21T09:45:25;3.80;;;0.82;;
35496;SDS011;21609;49.298;6.844;2023-11-21T09:47:56;6.47;;;1.85;;
35496;SDS011;21609;49.298;6.844;2023-11-21T09:50:22;4.63;;;0.90;;
35496;SDS011;21609;49.298;6.844;2023-11-21T09:52:54;4.88;;;1.45;;
35496;SDS011;21609;49.298;6.844;2023-11-21T09:55:22;11.52;;;1.50;;
35496;SDS011;21609;49.298;6.844;2023-11-21T09:57:52;8.38;;;1.30;;
35496;SDS011;21609;49.298;6.844;2023-11-21T10:00:19;2.28;;;0.82;;
35496;SDS011;21609;49.298;6.844;2023-11-21T10:02:48;2.03;;;1.00;;
35496;SDS011;21609;49.298;6.844;2023-11-21T10:05:14;7.35;;;1.52;;
35496;SDS011;21609;49.298;6.844;2023-11-21T10:07:42;4.63;;;1.38;;
35496;SDS011;21609;49.298;6.844;2023-11-21T10:10:10;4.97;;;1.40;;
35496;SDS011;21609;49.298;6.844;2023-11-21T10:12:36;2.65;;;1.45;;
35496;SDS011;21609;49.298;6.844;2023-11-21T10:15:03;4.13;;;1.27;;
35496;SDS011;21609;49.298;6.844;2023-11-21T10:17:35;4.55;;;0.85;;
35496;SDS011;21609;49.298;6.844;2023-11-21T10:20:08;3.83;;;0.90;;
35496;SDS011;21609;49.298;6.844;2023-11-21T10:22:43;3.58;;;1.10;;
35496;SDS011;21609;49.298;6.844;2023-11-21T10:27:35;3.85;;;0.85;;
35496;SDS011;21609;49.298;6.844;2023-11-21T10:30:02;5.05;;;1.30;;
35496;SDS011;21609;49.298;6.844;2023-11-21T10:32:29;7.60;;;1.20;;
35496;SDS011;21609;49.298;6.844;2023-11-21T10:34:58;7.15;;;1.35;;
35496;SDS011;21609;49.298;6.844;2023-11-21T10:37:31;1.58;;;0.70;;
35496;SDS011;21609;49.298;6.844;2023-11-21T10:40:00;3.92;;;1.33;;
35496;SDS011;21609;49.298;6.844;2023-11-21T10:42:26;1.75;;;0.85;;
35496;SDS011;21609;49.298;6.844;2023-11-21T10:44:54;2.20;;;1.13;;
35496;SDS011;21609;49.298;6.844;2023-11-21T10:47:21;2.08;;;0.80;;
35496;SDS011;21609;49.298;6.844;2023-11-21T10:49:51;3.13;;;1.25;;
35496;SDS011;21609;49.298;6.844;2023-11-21T10:52:21;2.08;;;1.13;;
35496;SDS011;21609;49.298;6.844;2023-11-21T10:54:47;7.18;;;5.20;;
35496;SDS011;21609;49.298;6.844;2023-11-21T10:57:13;7.70;;;3.83;;
35496;SDS011;21609;49.298;6.844;2023-11-21T10:59:43;5.25;;;3.30;;
35496;SDS011;21609;49.298;6.844;2023-11-21T11:02:23;6.80;;;3.50;;
35496;SDS011;21609;49.298;6.844;2023-11-21T11:04:53;11.57;;;7.20;;
35496;SDS011;21609;49.298;6.844;2023-11-21T11:07:20;13.15;;;7.55;;
35496;SDS011;21609;49.298;6.844;2023-11-21T11:09:50;12.70;;;6.82;;
35496;SDS011;21609;49.298;6.844;2023-11-21T11:12:17;13.63;;;7.68;;
35496;SDS011;21609;49.298;6.844;2023-11-21T11:14:44;14.25;;;7.85;;
35496;SDS011;21609;49.298;6.844;2023-11-21T11:17:10;13.57;;;7.10;;
35496;SDS011;21609;49.298;6.844;2023-11-21T11:19:35;9.32;;;6.13;;
35496;SDS011;21609;49.298;6.844;2023-11-21T11:22:19;11.95;;;5.18;;
35496;SDS011;21609;49.298;6.844;2023-11-21T11:25:03;8.85;;;5.63;;
35496;SDS011;21609;49.298;6.844;2023-11-21T11:27:52;6.93;;;4.43;;
35496;SDS011;21609;49.298;6.844;2023-11-21T11:38:48;8.23;;;4.50;;
35496;SDS011;21609;49.298;6.844;2023-11-21T11:41:15;6.90;;;3.88;;
35496;SDS011;21609;49.298;6.844;2023-11-21T11:43:54;8.52;;;4.95;;
35496;SDS011;21609;49.298;6.844;2023-11-21T11:46:20;8.77;;;3.83;;
35496;SDS011;21609;49.298;6.844;2023-11-21T11:48:49;9.25;;;4.25;;
35496;SDS011;21609;49.298;6.844;2023-11-21T11:51:28;6.68;;;3.50;;
35496;SDS011;21609;49.298;6.844;2023-11-21T11:53:56;11.07;;;4.43;;
35496;SDS011;21609;49.298;6.844;2023-11-21T11:56:22;7.00;;;3.83;;
35496;SDS011;21609;49.298;6.844;2023-11-21T11:59:00;6.22;;;3.40;;
35496;SDS011;21609;49.298;6.844;2023-11-21T12:01:30;8.85;;;3.50;;
35496;SDS011;21609;49.298;6.844;2023-11-21T12:06:59;4.63;;;3.00;;
35496;SDS011;21609;49.298;6.844;2023-11-21T12:09:27;9.02;;;3.25;;
35496;SDS011;21609;49.298;6.844;2023-11-21T12:11:55;6.55;;;2.92;;
35496;SDS011;21609;49.298;6.844;2023-11-21T12:14:23;5.95;;;2.95;;
35496;SDS011;21609;49.298;6.844;2023-11-21T12:16:49;4.57;;;2.97;;
35496;SDS011;21609;49.298;6.844;2023-11-21T12:19:16;5.22;;;2.88;;
35496;SDS011;21609;49.298;6.844;2023-11-21T12:21:42;5.40;;;2.83;;
35496;SDS011;21609;49.298;6.844;2023-11-21T12:24:09;4.80;;;2.22;;
35496;SDS011;21609;49.298;6.844;2023-11-21T12:26:35;5.30;;;2.53;;
35496;SDS011;21609;49.298;6.844;2023-11-21T12:29:04;5.40;;;3.03;;
35496;SDS011;21609;49.298;6.844;2023-11-21T12:31:32;4.10;;;2.78;;
35496;SDS011;21609;49.298;6.844;2023-11-21T12:33:58;5.80;;;2.83;;
35496;SDS011;21609;49.298;6.844;2023-11-21T12:36:24;4.07;;;2.47;;
35496;SDS011;21609;49.298;6.844;2023-11-21T12:38:50;3.55;;;2.20;;
35496;SDS011;21609;49.298;6.844;2023-11-21T12:41:16;3.67;;;2.13;;
35496;SDS011;21609;49.298;6.844;2023-11-21T12:43:42;3.65;;;2.50;;
35496;SDS011;21609;49.298;6.844;2023-11-21T12:46:08;3.30;;;2.70;;
35496;SDS011;21609;49.298;6.844;2023-11-21T12:48:38;4.05;;;2.22;;
35496;SDS011;21609;49.298;6.844;2023-11-21T12:51:07;5.18;;;2.75;;
35496;SDS011;21609;49.298;6.844;2023-11-21T12:53:33;2.60;;;1.92;;
35496;SDS011;21609;49.298;6.844;2023-11-21T12:56:06;4.68;;;2.55;;
35496;SDS011;21609;49.298;6.844;2023-11-21T12:58:38;5.93;;;2.70;;
35496;SDS011;21609;49.298;6.844;2023-11-21T13:01:05;5.47;;;2.35;;
35496;SDS011;21609;49.298;6.844;2023-11-21T13:03:36;4.18;;;2.58;;
35496;SDS011;21609;49.298;6.844;2023-11-21T13:06:02;5.40;;;2.58;;
35496;SDS011;21609;49.298;6.844;2023-11-21T13:08:30;6.45;;;2.20;;
35496;SDS011;21609;49.298;6.844;2023-11-21T13:10:56;3.15;;;2.30;;
35496;SDS011;21609;49.298;6.844;2023-11-21T13:13:22;4.20;;;2.40;;
35496;SDS011;21609;49.298;6.844;2023-11-21T13:15:50;3.28;;;2.10;;
35496;SDS011;21609;49.298;6.844;2023-11-21T13:18:17;2.92;;;1.92;;
35496;SDS011;21609;49.298;6.844;2023-11-21T13:20:46;2.85;;;2.10;;
35496;SDS011;21609;49.298;6.844;2023-11-21T13:23:12;4.47;;;2.03;;
35496;SDS011;21609;49.298;6.844;2023-11-21T13:25:38;4.68;;;2.17;;
35496;SDS011;21609;49.298;6.844;2023-11-21T13:28:06;4.00;;;2.08;;
35496;SDS011;21609;49.298;6.844;2023-11-21T13:30:32;4.60;;;2.28;;
35496;SDS011;21609;49.298;6.844;2023-11-21T13:33:04;3.28;;;2.55;;
35496;SDS011;21609;49.298;6.844;2023-11-21T13:35:32;3.60;;;1.85;;
35496;SDS011;21609;49.298;6.844;2023-11-21T13:38:12;6.53;;;2.78;;
35496;SDS011;21609;49.298;6.844;2023-11-21T13:40:40;2.97;;;2.28;;
35496;SDS011;21609;49.298;6.844;2023-11-21T13:43:14;2.50;;;1.70;;
35496;SDS011;21609;49.298;6.844;2023-11-21T13:45:45;3.45;;;1.85;;
35496;SDS011;21609;49.298;6.844;2023-11-21T13:48:12;3.53;;;2.00;;
35496;SDS011;21609;49.298;6.844;2023-11-21T13:50:50;2.42;;;1.85;;
35496;SDS011;21609;49.298;6.844;2023-11-21T13:53:28;3.95;;;1.98;;
35496;SDS011;21609;49.298;6.844;2023-11-21T13:55:54;4.22;;;2.80;;
35496;SDS011;21609;49.298;6.844;2023-11-21T13:58:21;2.78;;;1.60;;
35496;SDS011;21609;49.298;6.844;2023-11-21T14:01:04;5.20;;;1.75;;
35496;SDS011;21609;49.298;6.844;2023-11-21T14:03:31;4.47;;;2.60;;
35496;SDS011;21609;49.298;6.844;2023-11-21T14:06:09;3.35;;;1.58;;
35496;SDS011;21609;49.298;6.844;2023-11-21T14:08:39;4.22;;;2.10;;
35496;SDS011;21609;49.298;6.844;2023-11-21T14:11:06;2.85;;;2.15;;
35496;SDS011;21609;49.298;6.844;2023-11-21T14:13:32;2.78;;;2.13;;
35496;SDS011;21609;49.298;6.844;2023-11-21T14:15:58;2.92;;;2.05;;
35496;SDS011;21609;49.298;6.844;2023-11-21T14:18:27;2.33;;;1.85;;
35496;SDS011;21609;49.298;6.844;2023-11-21T14:21:01;2.08;;;1.45;;
35496;SDS011;21609;49.298;6.844;2023-11-21T14:23:26;5.25;;;1.67;;
35496;SDS011;21609;49.298;6.844;2023-11-21T14:25:53;4.70;;;1.58;;
35496;SDS011;21609;49.298;6.844;2023-11-21T14:28:19;3.45;;;2.03;;
35496;SDS011;21609;49.298;6.844;2023-11-21T14:30:47;3.35;;;1.95;;
35496;SDS011;21609;49.298;6.844;2023-11-21T14:33:13;7.30;;;2.00;;
35496;SDS011;21609;49.298;6.844;2023-11-21T14:35:41;2.50;;;1.65;;
35496;SDS011;21609;49.298;6.844;2023-11-21T14:38:07;3.38;;;1.95;;
35496;SDS011;21609;49.298;6.844;2023-11-21T14:40:34;3.67;;;2.03;;
35496;SDS011;21609;49.298;6.844;2023-11-21T14:43:01;2.58;;;1.80;;
35496;SDS011;21609;49.298;6.844;2023-11-21T14:45:31;3.05;;;1.70;;
35496;SDS011;21609;49.298;6.844;2023-11-21T14:47:57;2.78;;;1.90;;
35496;SDS011;21609;49.298;6.844;2023-11-21T14:50:33;1.85;;;1.75;;
35496;SDS011;21609;49.298;6.844;2023-11-21T14:53:09;2.58;;;1.65;;
35496;SDS011;21609;49.298;6.844;2023-11-21T14:55:37;1.95;;;1.50;;
35496;SDS011;21609;49.298;6.844;2023-11-21T14:58:15;2.83;;;1.75;;
35496;SDS011;21609;49.298;6.844;2023-11-21T15:00:51;2.95;;;2.13;;
35496;SDS011;21609;49.298;6.844;2023-11-21T15:03:22;4.03;;;1.42;;
35496;SDS011;21609;49.298;6.844;2023-11-21T15:05:58;1.90;;;1.65;;